Archival Weather

Snohomish County (Paine Fld)

Everett, Washington (KPAE)

Report from: Monday, November 20, 2023 2:53 AM PST
Current time: Friday, February 23, 2024 1:17 PM PST

Current weather – Weather history – Daily summaries
Weather forecast

Temperature3.9°C (39.0°F)
Wind chill1.5°C (34.8°F)
Dew point1.7°C (35.1°F)
Winds 5 kts (2.6 m/s, 5.8 mph) East-Southeast (110°)
Visibility10 mi. (16.1 km)
Clouds Sky clear
Altimeter30.54 in.Hg (1034 mB)
Relative humidity86 %
Density altitude-1,964 ft. (-599 m)
Sea-level pressure103.5 kPa (1035 mB, 30.55 in.Hg)
Remarks Fully automated report
Automated weather observing station with precipitation discriminator
Flight conditions Visual Meteorological Conditions
Raw dataKPAE 201053Z AUTO 11005KT 10SM CLR 04/02 A3054 RMK AO2 SLP346 T00390017
An error has occurred. This application may no longer respond until reloaded. Reload 🗙